ADDS METAR Data INFO
IDs: Format: Raw Decoded Include TAF

Data at: 0201 UTC 17 Oct 2017

KVER 170155Z AUTO 20003KT 10SM CLR 13/04 A3027 RMK AO2 T01340041
KVER 170135Z AUTO 21003KT 10SM CLR 14/04 A3028 RMK AO2 T01380040
KVER 170115Z AUTO 20004KT 10SM CLR 14/04 A3028 RMK AO2 T01420037
KVER 170055Z AUTO 00000KT 10SM CLR 15/04 A3027 RMK AO2 T01470035
KVER 170035Z AUTO 00000KT 10SM CLR 16/03 A3027 RMK AO2 T01560030
KVER 170015Z AUTO 00000KT 10SM CLR 16/03 A3027 RMK AO2 T01620025
KVER 162355Z AUTO 00000KT 10SM CLR 17/01 A3027 RMK AO2 T01710014 10341 20037
KVER 162335Z AUTO 00000KT 10SM CLR 18/01 A3026 RMK AO2 T01790007
KVER 162315Z AUTO 00000KT 10SM CLR 19/01 A3026 RMK AO2 T01860007
KVER 162255Z AUTO 21003KT 10SM CLR 19/01 A3026 RMK AO2 T01920008
KVER 162235Z AUTO 20003KT 10SM CLR 20/00 A3026 RMK AO2 T01970002
KVER 162215Z AUTO 00000KT 10SM CLR 20/00 A3027 RMK AO2 T02000001
KVER 162155Z AUTO 26004KT 10SM CLR 20/00 A3027 RMK AO2 T02000000
KVER 162135Z AUTO 29004KT 10SM CLR 20/00 A3028 RMK AO2 T02020000
KVER 162115Z AUTO 23003KT 10SM CLR 20/00 A3029 RMK AO2 T02040000
KVER 162055Z AUTO 26003KT 10SM CLR 20/00 A3029 RMK AO2 T02021002
KVER 162035Z AUTO 26004KT 10SM CLR 20/00 A3030 RMK AO2 T02020004
KVER 162015Z AUTO 22006KT 10SM CLR 20/01 A3030 RMK AO2 T01990009
KVER 161955Z AUTO 29004KT 10SM CLR 20/01 A3031 RMK AO2 T01970010
KVER 161935Z AUTO 27007KT 10SM CLR 20/00 A3032 RMK AO2 T01950004
KVER 161915Z AUTO 26007KT 190V280 10SM CLR 19/00 A3033 RMK AO2 T01941001
KVER 161835Z AUTO 27009KT 10SM CLR 19/01 A3035 RMK AO2 T01880010
KVER 161815Z AUTO 27004KT 10SM CLR 19/01 A3036 RMK AO2 T01870014
KVER 161755Z AUTO 25003KT 10SM CLR 18/02 A3037 RMK AO2 T01820018 10341 20037
KVER 161735Z AUTO 20005KT 10SM CLR 18/02 A3038 RMK AO2 T01780021
KVER 161715Z AUTO 20004KT 10SM CLR 17/02 A3039 RMK AO2 T01730018
KVER 161655Z AUTO 21005KT 10SM CLR 17/01 A3040 RMK AO2 T01680013
KVER 161635Z AUTO 25004KT 10SM CLR 16/01 A3040 RMK AO2 T01620012
KVER 161615Z AUTO 24007KT 10SM CLR 16/03 A3040 RMK AO2 T01560028
KVER 161555Z AUTO 24005KT 10SM CLR 15/05 A3041 RMK AO2 T01470047
KVER 161535Z AUTO 24003KT 10SM CLR 14/05 A3041 RMK AO2 T01380052
KVER 161515Z AUTO 25003KT 10SM CLR 13/06 A3041 RMK AO2 T01250056
KVER 161455Z AUTO 21003KT 10SM CLR 11/06 A3041 RMK AO2 T01110061
KVER 161435Z AUTO 00000KT 10SM CLR 10/ A3041 RMK AO2 T0095
KVER 161415Z AUTO 00000KT 10SM CLR 08/ A3041 RMK AO2 T0081
KVER 161355Z AUTO 00000KT 10SM CLR 07/ A3041 RMK AO2 T0070
KVER 161335Z AUTO 00000KT 10SM CLR 06/ A3040 RMK AO2 T0061
KVER 161315Z AUTO 00000KT 10SM CLR 05/ A3040 RMK AO2 T0046
KVER 161255Z AUTO 00000KT 10SM CLR 04/ A3039 RMK AO2 T0039
KVER 161235Z AUTO 00000KT 10SM CLR 04/ A3039 RMK AO2 T0038
KVER 161215Z AUTO 00000KT 10SM CLR 04/ A3039 RMK AO2 T0037
KVER 161155Z AUTO 00000KT 10SM CLR 04/ A3039 RMK AO2 T0039 10341 20039
KVER 161135Z AUTO 00000KT 10SM CLR 04/ A3038 RMK AO2 T0042
KVER 161115Z AUTO 00000KT 10SM CLR 05/ A3038 RMK AO2 T0045
KVER 161055Z AUTO 21003KT 10SM CLR 05/ A3038 RMK AO2 T0047
KVER 161035Z AUTO 00000KT 10SM CLR 05/ A3038 RMK AO2 T0048
KVER 161015Z AUTO 21003KT 10SM CLR 05/ A3038 RMK AO2 T0045
KVER 160955Z AUTO 00000KT 10SM CLR 05/ A3037 RMK AO2 T0045
KVER 160935Z AUTO 00000KT 10SM CLR 05/ A3037 RMK AO2 T0046
KVER 160915Z AUTO 00000KT 10SM CLR 05/ A3037 RMK AO2 T0048
KVER 160855Z AUTO 00000KT 10SM CLR 05/ A3036 RMK AO2 T0053
KVER 160835Z AUTO 00000KT 10SM CLR 06/ A3036 RMK AO2 T0056
KVER 160815Z AUTO 00000KT 10SM CLR 06/ A3037 RMK AO2 T0055
KVER 160755Z AUTO 00000KT 10SM CLR 05/ A3037 RMK AO2 T0053
KVER 160735Z AUTO 00000KT 10SM CLR 05/ A3037 RMK AO2 T0052
KVER 160715Z AUTO 00000KT 10SM CLR 06/ A3036 RMK AO2 T0056
KVER 160655Z AUTO 20003KT 10SM CLR 06/ A3036 RMK AO2 T0057
KVER 160635Z AUTO 00000KT 10SM CLR 06/ A3036 RMK AO2 T0056
KVER 160615Z AUTO 00000KT 10SM CLR 06/ A3036 RMK AO2 T0064
KVER 160555Z AUTO 00000KT 10SM CLR 07/05 A3036 RMK AO2 T00730051 10341 20072 403410072
KVER 160535Z AUTO 00000KT 10SM CLR 07/06 A3036 RMK AO2 T00740058
KVER 160515Z AUTO 00000KT 10SM CLR 08/06 A3036 RMK AO2 T00750060
KVER 160455Z AUTO 00000KT 10SM CLR 09/04 A3036 RMK AO2 T00860042
KVER 160435Z AUTO 00000KT 10SM CLR 09/04 A3036 RMK AO2 T00930041
KVER 160415Z AUTO 00000KT 10SM CLR 10/04 A3036 RMK AO2 T01000037
KVER 160355Z AUTO 29003KT 10SM CLR 10/04 A3036 RMK AO2 T01010038
KVER 160335Z AUTO 30003KT 10SM CLR 10/04 A3036 RMK AO2 T01020040
KVER 160315Z AUTO 00000KT 10SM CLR 11/04 A3035 RMK AO2 T01060040
KVER 160255Z AUTO 00000KT 10SM CLR 11/04 A3035 RMK AO2 T01070040
KVER 160235Z AUTO 00000KT 10SM CLR 11/04 A3034 RMK AO2 T01070040
KVER 160215Z AUTO 31004KT 10SM CLR 11/04 A3034 RMK AO2 T01070044
KVER 160155Z AUTO 30003KT 10SM CLR 11/05 A3033 RMK AO2 T01090047
KVER 160135Z AUTO 00000KT 10SM CLR 11/05 A3033 RMK AO2 T01100048
KVER 160115Z AUTO 00000KT 10SM CLR 12/04 A3033 RMK AO2 T01190043
KVER 160055Z AUTO 00000KT 10SM CLR 12/04 A3032 RMK AO2 T01240042
KVER 160035Z AUTO 00000KT 10SM CLR 13/04 A3032 RMK AO2 T01250044
KVER 160015Z AUTO 00000KT 10SM CLR 13/05 A3031 RMK AO2 T01280045
KVER 152355Z AUTO 00000KT 10SM CLR 13/05 A3030 RMK AO2 T01300046 10341 20073
KVER 152335Z AUTO 31003KT 10SM CLR 14/04 A3030 RMK AO2 T01380042
KVER 152315Z AUTO 32004KT 10SM CLR 15/04 A3030 RMK AO2 T01460039
KVER 152255Z AUTO 31006KT 10SM CLR 15/04 A3030 RMK AO2 T01530037
KVER 152235Z AUTO 33005KT 10SM CLR 16/04 A3030 RMK AO2 T01560035
KVER 152215Z AUTO 33008KT 10SM CLR 16/04 A3029 RMK AO2 T01600035
KVER 152155Z AUTO 32006KT 10SM CLR 16/04 A3029 RMK AO2 T01620040
KVER 152135Z AUTO 33006KT 10SM SCT044 16/04 A3029 RMK AO2 T01630040
KVER 152115Z AUTO 34009KT 10SM SCT044 17/05 A3029 RMK AO2 T01660046
KVER 152055Z AUTO 34011KT 10SM SCT044 17/05 A3028 RMK AO2 T01660047
KVER 152035Z AUTO 31009G15KT 260V340 10SM CLR 16/05 A3028 RMK AO2 T01620046
KVER 152015Z AUTO 33010G16KT 10SM SCT039 16/05 A3028 RMK AO2 T01620048
KVER 151935Z AUTO 31011G14KT 10SM BKN039 16/05 A3028 RMK AO2 T01580051
KVER 151915Z AUTO 31009G14KT 10SM SCT039 16/05 A3028 RMK AO2 T01550051
KVER 151855Z AUTO 31009G17KT 10SM SCT037 15/05 A3029 RMK AO2 T01520052
KVER 151835Z AUTO 32013KT 10SM SCT033 15/05 A3029 RMK AO2 T01490050
KVER 151815Z AUTO 30009G15KT 260V330 10SM SCT033 15/05 A3029 RMK AO2 T01470051
KVER 151755Z AUTO 28009KT 250V320 10SM SCT031 14/05 A3029 RMK AO2 T01410051 10341 20073
KVER 151735Z AUTO 30008KT 280V350 10SM SCT029 14/05 A3029 RMK AO2 T01350054
KVER 151715Z AUTO 32010KT 10SM BKN029 BKN034 13/05 A3030 RMK AO2 T01310051
KVER 151655Z AUTO 30010G15KT 260V320 10SM BKN027 BKN034 13/05 A3030 RMK AO2 T01270052
KVER 151615Z AUTO 34010G14KT 10SM SCT026 12/05 A3029 RMK AO2 T01240049
KVER 151555Z AUTO 34008G16KT 310V020 10SM SCT026 12/05 A3028 RMK AO2 T01220051
KVER 151535Z AUTO 31011G17KT 10SM SCT026 12/05 A3028 RMK AO2 T01190050
KVER 151515Z AUTO 32011G18KT 10SM SCT024 SCT032 12/05 A3027 RMK AO2 T01150047
KVER 151455Z AUTO 31013G18KT 10SM BKN024 BKN033 12/05 A3026 RMK AO2 T01150052
KVER 151435Z AUTO 34010G18KT 10SM SCT026 11/05 A3026 RMK AO2 T01120051
KVER 151415Z AUTO 30007G16KT 260V320 10SM OVC026 11/05 A3025 RMK AO2 T01080054